createdAt,value
2022-12-01T00:01:25.881Z,86.20
2022-12-01T00:03:54.977Z,76.93
2022-12-01T00:06:23.602Z,76.32
2022-12-01T00:09:14.055Z,85.32
2022-12-01T00:11:45.269Z,90.10
2022-12-01T00:14:14.534Z,82.88
2022-12-01T00:16:45.003Z,79.15
2022-12-01T00:19:13.689Z,82.63
2022-12-01T00:21:42.374Z,79.97
2022-12-01T00:24:12.888Z,84.15
2022-12-01T00:26:41.447Z,84.97
2022-12-01T00:29:10.013Z,70.55
2022-12-01T00:31:38.684Z,74.05
2022-12-01T00:34:11.378Z,72.40
2022-12-01T00:36:40.780Z,66.72
2022-12-01T00:39:12.873Z,74.10
2022-12-01T00:41:41.456Z,70.15
2022-12-01T00:44:10.246Z,75.05
2022-12-01T00:46:38.910Z,84.40
2022-12-01T00:49:07.472Z,79.15
2022-12-01T00:51:36.077Z,86.13
2022-12-01T00:54:05.033Z,78.93
2022-12-01T00:56:34.979Z,78.78
2022-12-01T00:59:03.535Z,83.40
2022-12-01T01:01:32.168Z,72.78
2022-12-01T01:04:03.857Z,80.53
2022-12-01T01:06:32.364Z,78.85
2022-12-01T01:09:00.924Z,73.40
2022-12-01T01:11:31.623Z,79.57
2022-12-01T01:14:04.237Z,81.30
2022-12-01T01:16:34.397Z,77.13
2022-12-01T01:19:03.012Z,74.70
2022-12-01T01:21:33.450Z,76.05
2022-12-01T01:24:02.043Z,78.18
2022-12-01T01:26:31.844Z,84.22
2022-12-01T01:29:03.089Z,73.05
2022-12-01T01:31:31.904Z,73.72
2022-12-01T01:34:00.450Z,81.70
2022-12-01T01:36:29.941Z,77.93
2022-12-01T01:38:58.505Z,85.65
2022-12-01T01:41:27.090Z,82.53
2022-12-01T01:43:56.437Z,82.55
2022-12-01T01:46:28.917Z,74.80
2022-12-01T01:49:00.169Z,79.50
2022-12-01T01:51:30.397Z,76.07
2022-12-01T01:54:03.017Z,92.05
2022-12-01T01:56:31.639Z,79.80
2022-12-01T01:59:00.419Z,85.13
2022-12-01T02:01:31.673Z,90.47
2022-12-01T02:04:00.226Z,80.30
2022-12-01T02:06:28.816Z,92.72
2022-12-01T02:08:57.332Z,86.97
2022-12-01T02:11:49.418Z,88.15
2022-12-01T02:14:32.134Z,70.53
2022-12-01T02:17:07.522Z,85.88
2022-12-01T02:19:45.845Z,80.85
2022-12-01T02:22:20.603Z,81.47
2022-12-01T02:25:03.418Z,79.63
2022-12-01T02:27:43.750Z,89.90
2022-12-01T02:30:13.593Z,89.82
2022-12-01T02:32:49.151Z,78.60
2022-12-01T02:35:22.046Z,86.55
2022-12-01T02:37:53.263Z,74.20
2022-12-01T02:40:23.884Z,90.15
2022-12-01T02:43:00.035Z,85.85
2022-12-01T02:45:34.091Z,85.18
2022-12-01T02:48:05.033Z,81.57
2022-12-01T02:50:33.921Z,79.88
2022-12-01T02:53:03.174Z,80.15
2022-12-01T02:55:31.749Z,87.38
2022-12-01T02:58:00.289Z,82.72
2022-12-01T03:00:29.294Z,81.78
2022-12-01T03:03:08.496Z,79.25
2022-12-01T03:05:41.434Z,88.75
2022-12-01T03:08:13.909Z,82.25
2022-12-01T03:10:46.600Z,80.05
2022-12-01T03:13:20.374Z,85.20
2022-12-01T03:15:53.526Z,86.20
2022-12-01T03:18:27.198Z,74.65
2022-12-01T03:20:58.416Z,83.80
2022-12-01T03:23:27.839Z,85.53
2022-12-01T03:25:56.478Z,86.15
2022-12-01T03:28:28.836Z,92.70
2022-12-01T03:31:00.011Z,85.78
2022-12-01T03:33:33.034Z,97.97
2022-12-01T03:36:02.565Z,86.68
2022-12-01T03:38:31.969Z,96.18
2022-12-01T03:41:03.046Z,84.57
2022-12-01T03:43:32.793Z,95.18
2022-12-01T03:46:04.014Z,93.30
2022-12-01T03:48:34.007Z,94.18
2022-12-01T03:51:06.116Z,88.10
2022-12-01T03:53:37.411Z,87.15
2022-12-01T03:56:06.930Z,93.70
2022-12-01T03:58:37.884Z,90.88
2022-12-01T04:01:08.939Z,90.25
2022-12-01T04:03:38.914Z,86.05
2022-12-01T04:06:07.965Z,78.03
2022-12-01T04:08:37.512Z,84.55
2022-12-01T04:11:32.232Z,92.07
2022-12-01T04:14:00.242Z,84.35
2022-12-01T04:16:28.856Z,89.68
2022-12-01T04:18:58.929Z,84.95
2022-12-01T04:21:29.293Z,80.80
2022-12-01T04:24:03.506Z,91.45
2022-12-01T04:26:33.260Z,85.93
2022-12-01T04:29:01.865Z,85.53
2022-12-01T04:31:30.536Z,82.53
2022-12-01T04:34:00.714Z,92.13
2022-12-01T04:36:30.630Z,79.70
2022-12-01T04:38:59.271Z,90.45
2022-12-01T04:41:27.903Z,79.65
2022-12-01T04:43:56.536Z,86.13
2022-12-01T04:46:25.143Z,86.25
2022-12-01T04:48:53.824Z,87.82
2022-12-01T04:51:23.757Z,88.95
2022-12-01T04:53:52.416Z,81.63
2022-12-01T04:56:20.932Z,86.85
2022-12-01T04:58:51.830Z,85.50
2022-12-01T05:01:20.482Z,84.60
2022-12-01T05:03:50.431Z,83.35
2022-12-01T05:06:20.740Z,80.43
2022-12-01T05:08:50.733Z,89.80
2022-12-01T05:11:19.481Z,81.40
2022-12-01T05:13:49.113Z,83.03
2022-12-01T05:16:18.652Z,80.82
2022-12-01T05:18:49.793Z,87.97
2022-12-01T05:21:20.573Z,82.03
2022-12-01T05:23:50.508Z,77.65
2022-12-01T05:26:19.098Z,82.25
2022-12-01T05:28:47.690Z,85.47
2022-12-01T05:31:16.287Z,90.57
2022-12-01T05:33:44.953Z,85.22
2022-12-01T05:36:13.517Z,90.57
2022-12-01T05:38:43.835Z,82.28
2022-12-01T05:41:13.780Z,93.07
2022-12-01T05:43:42.375Z,94.60
2022-12-01T05:46:10.968Z,102.53
2022-12-01T05:48:39.601Z,93.72
2022-12-01T05:51:11.310Z,95.80
2022-12-01T05:53:39.891Z,85.25
2022-12-01T05:56:09.164Z,90.88
2022-12-01T05:58:40.651Z,100.28
2022-12-01T06:01:09.272Z,94.45
2022-12-01T06:03:37.858Z,89.45
2022-12-01T06:06:06.664Z,94.22
2022-12-01T06:08:35.272Z,95.50
2022-12-01T06:11:06.258Z,84.35
2022-12-01T06:13:34.842Z,90.05
2022-12-01T06:16:06.669Z,87.40
2022-12-01T06:18:38.118Z,83.50
2022-12-01T06:21:10.537Z,90.03
2022-12-01T06:23:40.283Z,72.35
2022-12-01T06:26:08.854Z,89.55
2022-12-01T06:28:37.430Z,79.60
2022-12-01T06:31:07.778Z,85.18
2022-12-01T06:33:36.318Z,83.50
2022-12-01T06:36:05.970Z,86.80
2022-12-01T06:38:35.381Z,80.63
2022-12-01T06:41:04.153Z,98.00
2022-12-01T06:43:32.714Z,79.90
2022-12-01T06:46:03.816Z,83.80
2022-12-01T06:48:34.437Z,88.20
2022-12-01T06:51:03.231Z,84.47
2022-12-01T06:53:31.926Z,83.93
2022-12-01T06:56:01.955Z,82.20
2022-12-01T06:58:30.883Z,85.13
2022-12-01T07:00:59.907Z,87.70
2022-12-01T07:03:28.521Z,81.15
2022-12-01T07:05:59.298Z,86.97
2022-12-01T07:08:28.432Z,95.25
2022-12-01T07:11:00.559Z,95.22
2022-12-01T07:13:33.826Z,94.25
2022-12-01T07:16:03.277Z,84.90
2022-12-01T07:18:32.029Z,93.70
2022-12-01T07:21:02.492Z,102.15
2022-12-01T07:23:31.378Z,101.82
2022-12-01T07:26:00.796Z,113.32
2022-12-01T07:28:29.532Z,101.45
2022-12-01T07:31:03.912Z,108.68
2022-12-01T07:33:32.586Z,100.25
2022-12-01T07:36:02.583Z,120.43
2022-12-01T07:38:31.261Z,111.03
2022-12-01T07:41:03.603Z,120.15
2022-12-01T07:43:32.666Z,124.15
2022-12-01T07:46:06.716Z,129.70
2022-12-01T07:48:37.154Z,128.13
2022-12-01T07:51:07.341Z,122.93
2022-12-01T07:53:35.906Z,125.18
2022-12-01T07:56:08.807Z,126.90
2022-12-01T07:58:37.737Z,125.88
2022-12-01T08:01:09.761Z,127.10
2022-12-01T08:03:38.394Z,133.68
2022-12-01T08:06:08.618Z,133.00
2022-12-01T08:08:40.027Z,128.20
2022-12-01T08:11:09.378Z,135.27
2022-12-01T08:13:41.021Z,135.63
2022-12-01T08:16:10.667Z,136.23
2022-12-01T08:18:40.653Z,137.27
2022-12-01T08:21:11.976Z,133.45
2022-12-01T08:23:42.634Z,141.75
2022-12-01T08:26:13.935Z,136.68
2022-12-01T08:28:42.651Z,122.88
2022-12-01T08:31:12.346Z,125.50
2022-12-01T08:33:41.023Z,126.68
2022-12-01T08:36:11.214Z,129.93
2022-12-01T08:38:39.863Z,145.77
2022-12-01T08:41:10.090Z,135.27
2022-12-01T08:46:29.167Z,136.32
2022-12-01T08:48:59.339Z,145.07
2022-12-01T08:51:29.315Z,132.90
2022-12-01T08:53:58.616Z,133.38
2022-12-01T08:56:28.203Z,131.45
2022-12-01T08:58:57.055Z,131.10
2022-12-01T09:01:26.761Z,123.05
2022-12-01T09:04:06.695Z,118.53
2022-12-01T09:06:39.776Z,128.85
2022-12-01T09:09:08.435Z,126.60
2022-12-01T09:11:37.043Z,116.80
2022-12-01T09:14:05.662Z,121.93
2022-12-01T09:16:34.413Z,118.65
2022-12-01T09:19:03.227Z,119.50
2022-12-01T09:21:32.815Z,115.20
2022-12-01T09:24:02.919Z,126.25
2022-12-01T09:26:31.531Z,121.65
2022-12-01T09:29:01.044Z,116.68
2022-12-01T09:31:29.661Z,119.60
2022-12-01T09:33:58.822Z,129.77
2022-12-01T09:36:27.631Z,116.43
2022-12-01T09:38:56.222Z,130.00
2022-12-01T09:41:29.346Z,125.75
2022-12-01T09:44:00.473Z,116.25
2022-12-01T09:46:33.299Z,114.03
2022-12-01T09:49:02.169Z,119.68
2022-12-01T09:51:34.899Z,121.80
2022-12-01T09:54:03.595Z,118.82
2022-12-01T09:56:35.370Z,115.28
2022-12-01T09:59:07.225Z,117.55
2022-12-01T10:01:37.879Z,122.40
2022-12-01T10:04:09.605Z,118.65
2022-12-01T10:06:43.430Z,118.63
2022-12-01T10:09:18.352Z,121.75
2022-12-01T10:11:48.426Z,113.85
2022-12-01T10:14:20.384Z,112.95
2022-12-01T10:17:00.991Z,115.65
2022-12-01T10:19:32.975Z,113.18
2022-12-01T10:22:16.088Z,117.03
2022-12-01T10:24:52.691Z,114.95
2022-12-01T10:27:29.067Z,108.03
2022-12-01T10:30:01.320Z,114.43
2022-12-01T10:32:32.677Z,124.00
2022-12-01T10:35:03.628Z,134.73
2022-12-01T10:37:32.255Z,112.65
2022-12-01T10:40:00.828Z,116.03
2022-12-01T10:42:35.573Z,112.13
2022-12-01T10:45:05.962Z,109.13
2022-12-01T10:47:34.541Z,105.38
2022-12-01T10:50:04.324Z,111.65
2022-12-01T10:52:35.916Z,108.78
2022-12-01T10:55:05.589Z,105.97
2022-12-01T10:57:37.504Z,99.55
2022-12-01T11:00:09.049Z,99.03
2022-12-01T11:02:37.841Z,100.43
2022-12-01T11:05:07.573Z,98.43
2022-12-01T11:07:37.082Z,96.63
2022-12-01T11:10:16.933Z,101.85
2022-12-01T11:12:47.851Z,105.75
2022-12-01T11:15:21.905Z,87.07
2022-12-01T11:17:50.433Z,85.55
2022-12-01T11:20:28.267Z,91.30
2022-12-01T11:23:15.326Z,86.93
2022-12-01T11:25:44.130Z,88.55
2022-12-01T11:28:23.050Z,92.20
2022-12-01T11:30:56.881Z,84.45
2022-12-01T11:33:25.547Z,78.88
2022-12-01T11:35:54.098Z,77.53
2022-12-01T11:38:30.970Z,78.70
2022-12-01T11:40:59.774Z,82.03
2022-12-01T11:43:31.784Z,72.10
2022-12-01T11:46:02.094Z,79.38
2022-12-01T11:48:31.511Z,88.63
2022-12-01T11:51:08.433Z,88.82
2022-12-01T11:53:40.147Z,92.40
2022-12-01T11:56:23.389Z,75.63
2022-12-01T11:58:56.820Z,84.55
2022-12-01T12:01:35.648Z,65.32
2022-12-01T12:04:10.706Z,77.55
2022-12-01T12:06:43.159Z,74.25
2022-12-01T12:09:29.134Z,80.22
2022-12-01T12:12:03.314Z,77.00
2022-12-01T12:14:39.629Z,78.25
2022-12-01T12:17:18.532Z,74.78
2022-12-01T12:20:07.619Z,75.10
2022-12-01T12:22:42.561Z,80.25
2022-12-01T12:25:23.949Z,75.20
2022-12-01T12:27:56.485Z,73.47
2022-12-01T12:30:28.450Z,77.78
2022-12-01T12:33:25.449Z,73.07
2022-12-01T12:35:58.475Z,74.20
2022-12-01T12:38:36.812Z,69.90
2022-12-01T12:41:14.379Z,71.25
2022-12-01T12:43:45.046Z,68.53
2022-12-01T12:46:16.754Z,70.32
2022-12-01T12:51:45.959Z,71.35
2022-12-01T12:54:21.274Z,73.22
2022-12-01T12:56:53.932Z,69.03
2022-12-01T12:59:26.232Z,70.68
2022-12-01T13:02:00.637Z,66.72
2022-12-01T13:04:33.239Z,69.72
2022-12-01T13:07:03.276Z,77.93
2022-12-01T13:09:35.520Z,70.13
2022-12-01T13:12:06.073Z,66.60
2022-12-01T13:14:36.789Z,71.07
2022-12-01T13:17:15.741Z,68.85
2022-12-01T13:19:46.279Z,68.93
2022-12-01T13:22:15.469Z,66.68
2022-12-01T13:24:44.331Z,73.32
2022-12-01T13:27:16.667Z,86.43
2022-12-01T13:29:48.189Z,71.07
2022-12-01T13:32:33.303Z,72.55
2022-12-01T13:35:02.666Z,69.65
2022-12-01T13:37:32.640Z,68.70
2022-12-01T13:40:11.222Z,61.33
2022-12-01T13:42:39.880Z,65.53
2022-12-01T13:45:16.643Z,64.47
2022-12-01T13:47:52.650Z,65.90
2022-12-01T13:51:04.965Z,69.13
2022-12-01T13:53:36.822Z,75.88
2022-12-01T13:56:29.051Z,58.65
2022-12-01T13:58:57.588Z,59.30
2022-12-01T14:01:53.216Z,72.75
2022-12-01T14:04:41.007Z,62.83
2022-12-01T14:07:31.982Z,59.50
2022-12-01T14:10:09.607Z,64.10
2022-12-01T14:12:41.586Z,73.30
2022-12-01T14:15:24.627Z,67.95
2022-12-01T14:18:07.661Z,71.50
2022-12-01T14:20:44.877Z,69.63
2022-12-01T14:23:25.252Z,62.88
2022-12-01T14:26:13.354Z,57.55
2022-12-01T14:29:21.054Z,62.85
2022-12-01T14:32:25.719Z,61.83
2022-12-01T14:35:04.700Z,56.30
2022-12-01T14:37:50.429Z,62.28
2022-12-01T14:40:25.345Z,61.88
2022-12-01T14:43:12.298Z,56.47
2022-12-01T14:45:43.160Z,64.30
2022-12-01T14:48:13.575Z,56.20
2022-12-01T14:50:46.594Z,64.03
2022-12-01T14:53:26.620Z,56.67
2022-12-01T14:55:59.806Z,57.70
2022-12-01T14:58:29.397Z,54.83
2022-12-01T15:01:04.457Z,55.53
2022-12-01T15:03:39.772Z,57.42
2022-12-01T15:06:08.526Z,57.50
2022-12-01T15:08:43.571Z,50.63
2022-12-01T15:11:21.910Z,62.72
2022-12-01T15:13:51.276Z,60.60
2022-12-01T15:16:20.846Z,51.00
2022-12-01T15:18:49.555Z,61.45
2022-12-01T15:21:20.102Z,51.60
2022-12-01T15:23:57.600Z,61.42
2022-12-01T15:26:28.171Z,56.05
2022-12-01T15:29:16.626Z,56.47
2022-12-01T15:31:49.598Z,55.53
2022-12-01T15:34:20.256Z,60.78
2022-12-01T15:36:49.416Z,56.03
2022-12-01T15:39:21.839Z,61.92
2022-12-01T15:41:53.925Z,62.67
2022-12-01T15:44:26.976Z,61.10
2022-12-01T15:46:55.551Z,71.60
2022-12-01T15:49:29.495Z,66.72
2022-12-01T15:52:07.868Z,63.60
2022-12-01T15:54:37.801Z,64.90
2022-12-01T15:57:06.423Z,69.78
2022-12-01T15:59:37.710Z,64.25
2022-12-01T16:02:31.066Z,71.97
2022-12-01T16:05:04.280Z,69.00
2022-12-01T16:08:10.940Z,70.47
2022-12-01T16:10:29.489Z,71.70
2022-12-01T16:13:31.154Z,74.47
2022-12-01T16:15:59.742Z,68.05
2022-12-01T16:18:30.048Z,78.32
2022-12-01T16:21:04.750Z,69.93
2022-12-01T16:23:35.848Z,66.65
2022-12-01T16:26:08.659Z,74.88
2022-12-01T16:28:37.262Z,77.13
2022-12-01T16:31:06.995Z,66.45
2022-12-01T16:33:40.967Z,90.80
2022-12-01T16:36:09.943Z,77.18
2022-12-01T16:38:38.505Z,69.43
2022-12-01T16:41:17.865Z,75.60
2022-12-01T16:44:05.760Z,76.68
2022-12-01T16:46:35.541Z,74.95
2022-12-01T16:49:05.931Z,72.70
2022-12-01T16:51:54.233Z,74.22
2022-12-01T16:54:23.181Z,67.30
2022-12-01T16:56:53.153Z,75.68
2022-12-01T16:59:23.593Z,73.75
2022-12-01T17:01:52.205Z,80.65
2022-12-01T17:04:20.799Z,74.47
2022-12-01T17:06:49.386Z,105.32
2022-12-01T17:09:19.831Z,73.78
2022-12-01T17:11:48.438Z,84.22
2022-12-01T17:14:18.397Z,72.40
2022-12-01T17:16:46.975Z,69.03
2022-12-01T17:19:15.598Z,70.65
2022-12-01T17:21:44.172Z,72.32
2022-12-01T17:24:18.889Z,71.00
2022-12-01T17:26:47.885Z,63.92
2022-12-01T17:29:17.830Z,69.35
2022-12-01T17:31:46.377Z,67.55
2022-12-01T17:34:15.021Z,60.53
2022-12-01T17:36:43.550Z,68.30
2022-12-01T17:39:12.583Z,66.18
2022-12-01T17:41:42.189Z,67.57
2022-12-01T17:44:10.848Z,69.57
2022-12-01T17:46:41.895Z,71.18
2022-12-01T17:49:10.713Z,67.93
2022-12-01T17:51:39.583Z,66.60
2022-12-01T17:54:10.150Z,62.90
2022-12-01T17:56:38.778Z,64.15
2022-12-01T17:59:07.357Z,64.72
2022-12-01T18:01:36.012Z,68.20
2022-12-01T18:04:06.366Z,72.35
2022-12-01T18:06:38.640Z,71.93
2022-12-01T18:09:07.195Z,67.40
2022-12-01T18:11:35.844Z,73.30
2022-12-01T18:14:04.422Z,77.15
2022-12-01T18:16:34.901Z,68.95
2022-12-01T18:19:06.199Z,66.93
2022-12-01T18:21:34.800Z,74.82
2022-12-01T18:24:04.879Z,78.13
2022-12-01T18:26:34.554Z,71.18
2022-12-01T18:29:04.852Z,71.93
2022-12-01T18:31:34.446Z,77.38
2022-12-01T18:34:07.490Z,76.53
2022-12-01T18:36:36.863Z,80.78
2022-12-01T18:39:08.645Z,95.07
2022-12-01T18:41:37.321Z,70.03
2022-12-01T18:44:06.000Z,74.07
2022-12-01T18:46:34.762Z,67.18
2022-12-01T18:49:04.692Z,70.03
2022-12-01T18:51:35.493Z,66.00
2022-12-01T18:54:05.289Z,66.80
2022-12-01T18:56:34.019Z,78.68
2022-12-01T18:59:03.807Z,72.35
2022-12-01T19:01:36.111Z,66.88
2022-12-01T19:04:05.162Z,70.30
2022-12-01T19:06:35.906Z,69.85
2022-12-01T19:09:05.771Z,66.22
2022-12-01T19:11:34.363Z,74.68
2022-12-01T19:14:03.572Z,78.18
2022-12-01T19:16:32.336Z,71.38
2022-12-01T19:19:02.208Z,65.05
2022-12-01T19:21:35.590Z,71.13
2022-12-01T19:24:04.251Z,76.72
2022-12-01T19:26:32.893Z,70.28
2022-12-01T19:29:01.489Z,72.70
2022-12-01T19:31:30.189Z,66.60
2022-12-01T19:33:58.824Z,67.38
2022-12-01T19:36:28.478Z,67.22
2022-12-01T19:39:06.000Z,87.07
2022-12-01T19:41:38.537Z,77.07
2022-12-01T19:44:07.753Z,184.23
2022-12-01T19:46:36.385Z,82.40
2022-12-01T19:49:05.645Z,77.10
2022-12-01T19:51:35.578Z,71.88
2022-12-01T19:54:07.209Z,79.30
2022-12-01T19:56:35.906Z,73.70
2022-12-01T19:59:04.962Z,73.13
2022-12-01T20:01:33.717Z,75.85
2022-12-01T20:04:02.441Z,86.50
2022-12-01T20:06:32.032Z,67.43
2022-12-01T20:09:01.685Z,60.30
2022-12-01T20:11:32.990Z,63.20
2022-12-01T20:14:02.007Z,72.03
2022-12-01T20:16:33.180Z,66.70
2022-12-01T20:19:02.352Z,59.17
2022-12-01T20:21:32.227Z,64.88
2022-12-01T20:24:01.596Z,60.42
2022-12-01T20:26:32.586Z,63.15
2022-12-01T20:29:02.667Z,64.90
2022-12-01T20:31:31.855Z,65.38
2022-12-01T20:34:01.558Z,71.35
2022-12-01T20:36:30.183Z,56.03
2022-12-01T20:38:58.833Z,69.50
2022-12-01T20:41:27.438Z,62.72
2022-12-01T20:44:01.176Z,63.47
2022-12-01T20:46:32.434Z,63.20
2022-12-01T20:49:01.929Z,61.15
2022-12-01T20:51:33.156Z,65.40
2022-12-01T20:54:26.681Z,67.75
2022-12-01T20:56:50.566Z,65.35
2022-12-01T20:59:20.557Z,67.47
2022-12-01T21:01:50.968Z,63.00
2022-12-01T21:04:19.569Z,65.40
2022-12-01T21:06:49.950Z,64.00
2022-12-01T21:09:18.888Z,61.03
2022-12-01T21:12:07.689Z,62.50
2022-12-01T21:14:40.383Z,59.70
2022-12-01T21:17:21.634Z,62.78
2022-12-01T21:19:53.481Z,60.70
2022-12-01T21:22:22.390Z,60.38
2022-12-01T21:24:53.655Z,57.30
2022-12-01T21:27:22.696Z,60.45
2022-12-01T21:29:54.245Z,72.53
2022-12-01T21:32:28.190Z,58.17
2022-12-01T21:34:56.841Z,67.78
2022-12-01T21:37:26.145Z,59.40
2022-12-01T21:39:56.907Z,58.70
2022-12-01T21:42:27.749Z,55.97
2022-12-01T21:44:58.645Z,56.08
2022-12-01T21:47:30.736Z,56.22
2022-12-01T21:50:00.416Z,60.08
2022-12-01T21:52:31.807Z,53.70
2022-12-01T21:55:03.378Z,60.80
2022-12-01T21:57:43.826Z,62.13
2022-12-01T22:00:27.825Z,60.25
2022-12-01T22:03:22.573Z,52.05
2022-12-01T22:06:21.174Z,56.95
2022-12-01T22:08:46.273Z,60.40
2022-12-01T22:11:18.808Z,57.45
2022-12-01T22:13:53.128Z,57.33
2022-12-01T22:16:26.925Z,57.90
2022-12-01T22:18:56.407Z,55.75
2022-12-01T22:21:45.570Z,56.20
2022-12-01T22:24:27.929Z,61.03
2022-12-01T22:27:05.079Z,58.83
2022-12-01T22:29:38.005Z,62.58
2022-12-01T22:32:35.714Z,58.13
2022-12-01T22:35:26.806Z,62.15
2022-12-01T22:37:56.500Z,57.42
2022-12-01T22:40:42.211Z,61.60
2022-12-01T22:43:47.417Z,53.80
2022-12-01T22:46:30.444Z,68.93
2022-12-01T22:49:01.269Z,58.58
2022-12-01T22:51:41.186Z,56.88
2022-12-01T22:54:28.297Z,55.35
2022-12-01T22:57:25.855Z,57.60
2022-12-01T22:59:54.437Z,56.80
2022-12-01T23:02:24.402Z,61.05
2022-12-01T23:04:56.743Z,62.05
2022-12-01T23:07:29.972Z,53.72
2022-12-01T23:10:02.458Z,60.17
2022-12-01T23:12:31.580Z,57.35
2022-12-01T23:15:01.782Z,66.25
2022-12-01T23:17:32.097Z,60.75
2022-12-01T23:20:15.706Z,62.60
2022-12-01T23:22:44.324Z,49.53
2022-12-01T23:25:14.973Z,61.95
2022-12-01T23:27:43.660Z,58.83
2022-12-01T23:30:13.229Z,56.30
2022-12-01T23:32:41.859Z,56.42
2022-12-01T23:35:14.689Z,57.03
2022-12-01T23:37:44.035Z,57.10
2022-12-01T23:40:17.978Z,59.72
2022-12-01T23:42:46.601Z,57.67
2022-12-01T23:45:17.104Z,52.13
2022-12-01T23:47:45.971Z,58.35
2022-12-01T23:50:23.173Z,56.13
2022-12-01T23:52:51.741Z,53.20
2022-12-01T23:55:22.825Z,58.30
2022-12-01T23:57:51.429Z,56.65
